Time;durP1;ratioP1;P1;durP2;ratioP2;P2;SDS_P1;SDS_P2;PMS_P1;PMS_P2;Temp;Humidity;BMP_temperature;BMP_pressure;BME280_temperature;BME280_humidity;BME280_pressure;Samples;Min_cycle;Max_cycle;Signal;HPM_P1;HPM_P2
2022/07/02 00:02:21;;;;;;;0.50;0.50;;;18.20;99.90;;;;;;5094106;28;20016;-77
2022/07/02 00:04:57;;;;;;;0.95;0.35;;;18.10;99.90;;;;;;5093609;28;20121;-77
2022/07/02 00:07:24;;;;;;;0.30;0.30;;;18.10;99.90;;;;;;5093940;28;20016;-76
2022/07/02 00:09:55;;;;;;;5.50;0.80;;;18.20;99.90;;;;;;5093714;28;20024;-77
2022/07/02 00:12:21;;;;;;;1.95;0.93;;;18.20;99.90;;;;;;5093204;28;20027;-77
2022/07/02 00:14:51;;;;;;;1.17;1.00;;;18.20;99.90;;;;;;5092310;28;20032;-77
2022/07/02 00:17:17;;;;;;;1.58;0.47;;;18.20;99.90;;;;;;5092591;28;20024;-77
2022/07/02 00:19:43;;;;;;;1.73;0.38;;;18.10;99.90;;;;;;5093648;28;20530;-77
2022/07/02 00:22:11;;;;;;;2.05;0.80;;;18.00;99.90;;;;;;5093694;28;20030;-78
2022/07/02 00:24:40;;;;;;;1.35;0.50;;;18.00;99.90;;;;;;5093560;28;20103;-77
2022/07/02 00:27:08;;;;;;;1.20;0.43;;;18.00;99.90;;;;;;5093784;28;20023;-77
2022/07/02 00:29:41;;;;;;;0.47;0.40;;;17.90;99.90;;;;;;5093428;28;20027;-76
2022/07/02 00:32:07;;;;;;;0.70;0.65;;;17.90;99.90;;;;;;5093496;28;20056;-76
2022/07/02 00:34:38;;;;;;;1.20;0.57;;;17.90;99.90;;;;;;5093315;28;20056;-77
2022/07/02 00:37:08;;;;;;;1.40;0.43;;;17.90;99.90;;;;;;5093179;28;20049;-77
2022/07/02 00:39:34;;;;;;;0.40;0.40;;;17.80;99.90;;;;;;5093069;28;20012;-77
2022/07/02 00:42:01;;;;;;;0.45;0.30;;;17.80;99.90;;;;;;5093116;28;20017;-78
2022/07/02 00:44:27;;;;;;;0.32;0.30;;;17.80;99.90;;;;;;5093047;28;20016;-77
2022/07/02 00:46:53;;;;;;;0.32;0.15;;;17.80;99.90;;;;;;5093045;28;20035;-76
2022/07/02 00:49:20;;;;;;;2.80;0.17;;;17.80;99.90;;;;;;5093020;28;20024;-77
2022/07/02 00:51:46;;;;;;;0.98;0.30;;;17.70;99.90;;;;;;5093248;28;20084;-76
2022/07/02 00:54:12;;;;;;;1.60;0.10;;;17.60;99.90;;;;;;5093078;28;20067;-77
2022/07/02 00:56:37;;;;;;;0.55;0.20;;;17.60;99.90;;;;;;5092907;28;20027;-76
2022/07/02 00:59:04;;;;;;;1.13;0.30;;;17.50;99.90;;;;;;5092778;28;20490;-76
2022/07/02 01:01:29;;;;;;;1.25;0.20;;;17.50;99.90;;;;;;5092859;28;20537;-77
2022/07/02 01:03:57;;;;;;;0.38;0.25;;;17.40;99.90;;;;;;5091624;28;20064;-77
2022/07/02 01:06:25;;;;;;;0.25;0.25;;;17.40;99.90;;;;;;5092745;28;20040;-76
2022/07/02 01:11:40;;;;;;;1.65;0.20;;;17.20;99.90;;;;;;5093217;28;20050;-77
2022/07/02 01:14:05;;;;;;;0.28;0.28;;;17.10;99.90;;;;;;5092565;28;20043;-75
2022/07/02 01:16:31;;;;;;;0.95;0.40;;;17.10;99.90;;;;;;5091357;28;20024;-77
2022/07/02 01:18:58;;;;;;;0.40;0.40;;;;;;;;;;5091291;28;20740;-76
2022/07/02 01:21:26;;;;;;;1.33;0.40;;;;;;;;;;5092385;28;20024;-76
2022/07/02 01:23:51;;;;;;;0.65;0.30;;;17.00;99.90;;;;;;5092497;28;20143;-76
2022/07/02 01:26:17;;;;;;;0.50;0.50;;;17.10;99.90;;;;;;5092284;28;20101;-77
2022/07/02 01:28:43;;;;;;;0.80;0.50;;;;;;;;;;5091118;28;20054;-76
2022/07/02 01:31:10;;;;;;;0.60;0.60;;;16.90;99.90;;;;;;5092532;28;20022;-76
2022/07/02 01:33:35;;;;;;;1.52;0.50;;;17.00;99.90;;;;;;5092378;28;20471;-77
2022/07/02 01:36:01;;;;;;;0.70;0.70;;;16.80;99.90;;;;;;5092377;28;20039;-76
2022/07/02 01:38:26;;;;;;;0.50;0.32;;;16.60;99.90;;;;;;5092197;28;20025;-76
2022/07/02 01:41:38;;;;;;;1.08;0.40;;;16.80;99.90;;;;;;5092495;28;20021;-76
2022/07/02 01:43:37;;;;;;;3.00;0.30;;;16.80;99.90;;;;;;5092159;28;20012;-76
2022/07/02 01:46:03;;;;;;;0.65;0.30;;;16.80;99.90;;;;;;5090993;28;20089;-77
2022/07/02 01:48:29;;;;;;;0.40;0.30;;;16.90;99.90;;;;;;5092220;28;20463;-77
2022/07/02 01:50:54;;;;;;;0.68;0.30;;;16.90;99.90;;;;;;5092446;28;20024;-77
2022/07/02 01:53:20;;;;;;;2.15;0.57;;;16.90;99.90;;;;;;5092448;28;20028;-76
2022/07/02 01:55:45;;;;;;;1.45;0.35;;;16.80;99.90;;;;;;5092268;28;20459;-77
2022/07/02 01:58:11;;;;;;;1.95;0.30;;;16.80;99.90;;;;;;5092110;28;20016;-76
2022/07/02 02:00:37;;;;;;;0.20;0.20;;;16.90;99.90;;;;;;5092286;28;20024;-76
2022/07/02 02:03:02;;;;;;;0.22;0.20;;;16.80;99.90;;;;;;5090853;28;20020;-77
2022/07/02 02:05:28;;;;;;;1.38;0.73;;;16.80;99.90;;;;;;5091924;28;20452;-77
2022/07/02 02:07:54;;;;;;;1.27;0.90;;;16.80;99.90;;;;;;5091929;28;20020;-77
2022/07/02 02:10:20;;;;;;;0.70;0.50;;;16.80;99.90;;;;;;5092117;28;20038;-76
2022/07/02 02:12:45;;;;;;;5.40;0.63;;;16.90;99.90;;;;;;5092068;28;20034;-77
2022/07/02 02:15:11;;;;;;;0.52;0.40;;;16.80;99.90;;;;;;5091879;28;20111;-77
2022/07/02 02:17:37;;;;;;;3.58;0.40;;;16.80;99.90;;;;;;5092007;28;20543;-77
2022/07/02 02:20:03;;;;;;;1.05;0.43;;;16.80;99.90;;;;;;5091781;28;20475;-76
2022/07/02 02:22:28;;;;;;;2.40;0.60;;;16.70;99.90;;;;;;5091956;28;20093;-76
2022/07/02 02:24:54;;;;;;;3.58;0.38;;;16.80;99.90;;;;;;5092133;28;20456;-77
2022/07/02 02:27:19;;;;;;;7.13;0.77;;;16.70;99.90;;;;;;5090798;28;20455;-77
2022/07/02 02:29:45;;;;;;;0.22;0.22;;;16.70;99.90;;;;;;5091999;28;20479;-79
2022/07/02 02:32:11;;;;;;;0.88;0.30;;;16.70;99.90;;;;;;5091903;28;20036;-77
2022/07/02 02:34:36;;;;;;;0.55;0.40;;;16.70;99.90;;;;;;5091761;28;20047;-76
2022/07/02 02:37:02;;;;;;;0.30;0.30;;;16.70;99.90;;;;;;5092622;28;20074;-77
2022/07/02 02:39:28;;;;;;;0.32;0.32;;;;;;;;;;5095514;28;20482;-76
2022/07/02 02:41:54;;;;;;;0.30;0.30;;;;;;;;;;5095543;28;20060;-77
2022/07/02 02:44:21;;;;;;;1.27;0.38;;;;;;;;;;5095442;28;20079;-77
2022/07/02 02:46:47;;;;;;;0.38;0.20;;;;;;;;;;5095357;28;20063;-77
2022/07/02 02:49:12;;;;;;;2.13;0.50;;;16.90;99.90;;;;;;5095350;28;20044;-77
2022/07/02 02:51:38;;;;;;;0.90;0.82;;;16.80;99.90;;;;;;5095228;28;20113;-76
2022/07/02 02:54:04;;;;;;;2.50;0.85;;;16.80;99.90;;;;;;5095194;28;20502;-76
2022/07/02 02:56:30;;;;;;;1.95;1.38;;;16.70;99.90;;;;;;5095241;28;20020;-77
2022/07/02 02:58:55;;;;;;;1.08;0.25;;;16.40;99.90;;;;;;5095026;28;20371;-76
2022/07/02 03:01:21;;;;;;;0.88;0.63;;;16.40;99.90;;;;;;5095104;28;20094;-77
2022/07/02 03:03:47;;;;;;;3.05;0.68;;;16.40;99.90;;;;;;5093691;28;20028;-77
2022/07/02 03:06:12;;;;;;;1.50;0.63;;;16.40;99.90;;;;;;5094770;28;20083;-77
2022/07/02 03:08:38;;;;;;;0.60;0.50;;;16.30;99.90;;;;;;5095066;28;20028;-77
2022/07/02 03:11:03;;;;;;;0.82;0.45;;;16.30;99.90;;;;;;5094875;28;20024;-79
2022/07/02 03:13:29;;;;;;;0.43;0.30;;;16.30;99.90;;;;;;5094812;28;20028;-77
2022/07/02 03:15:55;;;;;;;0.20;0.20;;;16.30;99.90;;;;;;5094876;28;20020;-77
2022/07/02 03:18:20;;;;;;;0.43;0.40;;;16.30;99.90;;;;;;5094965;28;20024;-77
2022/07/02 03:20:46;;;;;;;4.57;0.77;;;16.30;99.90;;;;;;5093444;28;20467;-76
2022/07/02 03:23:11;;;;;;;0.60;0.60;;;16.30;99.90;;;;;;5094765;28;20107;-76
2022/07/02 03:25:37;;;;;;;0.73;0.50;;;16.30;99.90;;;;;;5094935;28;20032;-76
2022/07/02 03:28:03;;;;;;;2.63;0.80;;;16.30;99.90;;;;;;5094491;28;20048;-77
2022/07/02 03:30:29;;;;;;;1.08;0.50;;;16.30;99.90;;;;;;5094635;28;20471;-77
2022/07/02 03:32:54;;;;;;;4.47;0.90;;;16.30;99.90;;;;;;5094450;28;20032;-77
2022/07/02 03:35:20;;;;;;;2.17;0.75;;;16.30;99.90;;;;;;5094422;28;20028;-77
2022/07/02 03:37:45;;;;;;;1.98;1.00;;;16.30;99.90;;;;;;5094524;28;20376;-76
2022/07/02 03:40:11;;;;;;;3.55;0.70;;;16.30;99.90;;;;;;5094424;28;20479;-77
2022/07/02 03:42:37;;;;;;;3.55;0.70;;;16.30;99.90;;;;;;5094366;28;20023;-77
2022/07/02 03:45:03;;;;;;;0.70;0.70;;;16.30;99.90;;;;;;5094322;28;20103;-76
2022/07/02 03:47:29;;;;;;;1.50;0.80;;;16.40;99.90;;;;;;5094398;28;20028;-76
2022/07/02 03:49:54;;;;;;;1.80;0.70;;;16.40;99.90;;;;;;5094258;28;20024;-77
2022/07/02 03:52:20;;;;;;;0.90;0.80;;;16.40;99.90;;;;;;5094151;28;20486;-77
2022/07/02 03:54:45;;;;;;;1.02;0.70;;;16.50;99.90;;;;;;5094084;28;20040;-77
2022/07/02 03:57:11;;;;;;;0.93;0.70;;;16.60;99.90;;;;;;5094279;28;20082;-78
2022/07/02 03:59:37;;;;;;;1.58;1.05;;;16.70;99.90;;;;;;5093913;28;20016;-77
2022/07/02 04:02:03;;;;;;;2.97;1.02;;;16.70;99.90;;;;;;5094122;28;20024;-80
2022/07/02 04:04:28;;;;;;;2.53;0.93;;;16.70;99.90;;;;;;5094488;28;20030;-79
2022/07/02 04:06:54;;;;;;;1.48;1.20;;;16.80;99.90;;;;;;5093962;28;20039;-76
2022/07/02 04:09:19;;;;;;;3.95;1.05;;;16.80;99.90;;;;;;5093800;28;20055;-80
2022/07/02 04:11:45;;;;;;;1.60;1.50;;;17.50;99.90;;;;;;5094021;28;20060;-77
2022/07/02 04:14:11;;;;;;;2.05;1.00;;;17.70;99.90;;;;;;5093151;28;20501;-79
2022/07/02 04:16:36;;;;;;;1.08;0.60;;;18.50;99.90;;;;;;5096607;28;20107;-77
2022/07/02 04:19:02;;;;;;;4.05;0.77;;;19.00;99.90;;;;;;5096396;28;20062;-78
2022/07/02 04:21:28;;;;;;;2.70;0.63;;;19.30;99.90;;;;;;5093714;28;20020;-77
2022/07/02 04:23:53;;;;;;;1.05;0.40;;;19.70;99.90;;;;;;5093525;28;20499;-76
2022/07/02 04:26:19;;;;;;;0.45;0.45;;;19.90;99.90;;;;;;5093535;28;20083;-78
2022/07/02 04:28:44;;;;;;;3.13;0.65;;;20.10;99.90;;;;;;5093665;28;20024;-77
2022/07/02 04:31:10;;;;;;;0.28;0.22;;;20.20;99.90;;;;;;5093479;28;20021;-78
2022/07/02 04:33:36;;;;;;;0.57;0.30;;;20.30;99.90;;;;;;5093241;28;20356;-77
2022/07/02 04:36:01;;;;;;;0.35;0.20;;;20.40;99.90;;;;;;5093367;28;20215;-78
2022/07/02 04:38:27;;;;;;;3.00;0.60;;;20.50;99.90;;;;;;5093228;28;20036;-77
2022/07/02 04:40:53;;;;;;;0.40;0.40;;;20.40;99.90;;;;;;5093298;28;20036;-77
2022/07/02 04:43:18;;;;;;;0.10;0.10;;;20.30;99.90;;;;;;5093275;28;20024;-76
2022/07/02 04:45:44;;;;;;;0.20;0.20;;;20.30;99.90;;;;;;5093088;28;20060;-77
2022/07/02 04:48:10;;;;;;;0.20;0.20;;;20.30;99.90;;;;;;5093001;28;20091;-76
2022/07/02 04:50:35;;;;;;;0.22;0.22;;;20.60;99.90;;;;;;5093206;28;20379;-76
2022/07/02 04:53:01;;;;;;;2.20;0.20;;;20.40;99.90;;;;;;5093141;28;20023;-76
2022/07/02 04:55:27;;;;;;;5.68;0.32;;;20.30;99.90;;;;;;5093042;28;20039;-76
2022/07/02 04:57:52;;;;;;;0.25;0.17;;;20.40;99.90;;;;;;5092794;28;20024;-75
2022/07/02 05:00:18;;;;;;;0.20;0.20;;;20.60;99.90;;;;;;5092375;28;20638;-75
2022/07/02 05:02:43;;;;;;;0.38;0.20;;;20.70;99.90;;;;;;5091510;28;20368;-75
2022/07/02 05:05:09;;;;;;;0.60;0.28;;;20.70;99.90;;;;;;5092600;28;20091;-78
2022/07/02 05:07:35;;;;;;;2.08;0.40;;;21.00;99.90;;;;;;5092802;28;20023;-77
2022/07/02 05:10:01;;;;;;;0.55;0.30;;;21.10;99.70;;;;;;5092792;28;20024;-76
2022/07/02 05:12:26;;;;;;;0.43;0.10;;;21.10;98.80;;;;;;5092918;28;20026;-76
2022/07/02 05:14:52;;;;;;;0.00;0.00;;;21.10;97.80;;;;;;5091364;28;20113;-77
2022/07/02 05:17:18;;;;;;;0.70;0.20;;;21.00;97.50;;;;;;5092707;28;20076;-77
2022/07/02 05:19:44;;;;;;;0.30;0.30;;;21.00;97.80;;;;;;5092511;28;20052;-76
2022/07/02 05:22:10;;;;;;;0.30;0.20;;;20.90;98.20;;;;;;5092570;28;20057;-77
2022/07/02 05:24:36;;;;;;;3.50;0.40;;;20.80;98.50;;;;;;5092730;28;20016;-77
2022/07/02 05:27:01;;;;;;;0.30;0.30;;;20.90;99.50;;;;;;5092428;28;20553;-76
2022/07/02 05:29:27;;;;;;;0.95;0.40;;;20.90;99.40;;;;;;5092498;28;20036;-77
2022/07/02 05:31:53;;;;;;;1.02;0.30;;;20.90;98.50;;;;;;5092339;28;20043;-77
2022/07/02 05:34:18;;;;;;;0.10;0.10;;;21.00;98.70;;;;;;5092152;28;20463;-77
2022/07/02 05:36:44;;;;;;;4.25;0.20;;;21.10;98.80;;;;;;5092590;28;20448;-77
2022/07/02 05:39:10;;;;;;;3.42;0.03;;;21.10;96.80;;;;;;5092353;28;20024;-77
2022/07/02 05:41:35;;;;;;;0.52;0.30;;;21.20;96.70;;;;;;5092509;28;20039;-77
2022/07/02 05:44:01;;;;;;;0.10;0.10;;;21.30;96.40;;;;;;5092547;28;20048;-77
2022/07/02 05:46:26;;;;;;;0.30;0.20;;;21.30;96.20;;;;;;5091931;28;20067;-77
2022/07/02 05:48:52;;;;;;;0.10;0.10;;;21.30;95.10;;;;;;5092435;28;20031;-75
2022/07/02 05:51:18;;;;;;;1.95;0.57;;;21.20;95.20;;;;;;5092372;28;20024;-76
2022/07/02 05:53:43;;;;;;;1.55;0.30;;;21.10;95.20;;;;;;5092173;28;20031;-75
2022/07/02 05:56:09;;;;;;;0.22;0.20;;;21.00;95.20;;;;;;5092570;28;20030;-76
2022/07/02 05:58:34;;;;;;;0.68;0.17;;;20.90;96.00;;;;;;5092135;28;20012;-76
2022/07/02 06:01:00;;;;;;;1.52;0.22;;;20.80;95.00;;;;;;5092221;28;20028;-76
2022/07/02 06:03:26;;;;;;;1.45;0.20;;;20.60;96.30;;;;;;5092506;28;20051;-76
2022/07/02 06:08:39;;;;;;;0.08;0.08;;;20.80;96.80;;;;;;5092174;28;20082;-76
2022/07/02 06:11:04;;;;;;;0.45;0.15;;;20.90;96.60;;;;;;5091669;28;20027;-82
2022/07/02 06:13:30;;;;;;;0.20;0.20;;;21.00;95.60;;;;;;5095404;28;20028;-82
2022/07/02 06:15:55;;;;;;;0.40;0.10;;;21.10;95.30;;;;;;5095449;28;20028;-82
2022/07/02 06:18:21;;;;;;;1.65;0.20;;;21.10;94.50;;;;;;5096767;28;20024;-81
2022/07/02 06:20:47;;;;;;;0.10;0.10;;;21.20;93.90;;;;;;5095091;28;20024;-81
2022/07/02 06:23:13;;;;;;;0.20;0.10;;;;;;;;;;5095179;28;20032;-82
2022/07/02 06:25:38;;;;;;;0.10;0.10;;;21.30;94.30;;;;;;5095191;28;20492;-86
2022/07/02 06:28:04;;;;;;;1.90;0.20;;;21.50;93.60;;;;;;5096284;28;20162;-83
2022/07/02 06:30:30;;;;;;;2.38;0.13;;;21.50;93.50;;;;;;5095307;28;20061;-82
2022/07/02 06:32:55;;;;;;;0.20;0.20;;;21.60;93.10;;;;;;5096295;28;20081;-82
2022/07/02 06:35:21;;;;;;;0.50;0.10;;;21.70;93.30;;;;;;5096033;28;20032;-82
2022/07/02 06:37:47;;;;;;;0.17;0.17;;;21.70;92.80;;;;;;5096085;28;20020;-82
2022/07/02 06:40:12;;;;;;;0.03;0.03;;;21.80;91.80;;;;;;5095889;28;20036;-81
2022/07/02 06:42:38;;;;;;;0.20;0.20;;;21.80;92.50;;;;;;5094660;28;20528;-82
2022/07/02 06:45:04;;;;;;;1.02;0.10;;;21.90;92.40;;;;;;5094714;28;20051;-82
2022/07/02 06:47:32;;;;;;;0.75;0.10;;;21.90;92.30;;;;;;5095885;28;20412;-81
2022/07/02 06:49:58;;;;;;;2.05;0.20;;;;;;;;;;5095186;28;20020;-81
2022/07/02 06:52:25;;;;;;;0.10;0.10;;;22.00;92.10;;;;;;5095510;28;20370;-81
2022/07/02 06:54:50;;;;;;;0.32;0.22;;;22.10;91.60;;;;;;5094982;28;20040;-82
2022/07/02 06:57:16;;;;;;;0.10;0.10;;;22.30;91.20;;;;;;5094993;28;20353;-81
2022/07/02 06:59:42;;;;;;;3.97;0.20;;;22.40;90.60;;;;;;5094482;28;20097;-81
2022/07/02 07:02:08;;;;;;;0.90;0.10;;;22.40;90.70;;;;;;5096228;28;20451;-81
2022/07/02 07:04:35;;;;;;;0.55;0.47;;;22.60;90.10;;;;;;5095120;28;20040;-81
2022/07/02 07:07:03;;;;;;;0.15;0.08;;;22.60;90.00;;;;;;5095034;28;20032;-79
2022/07/02 07:09:30;;;;;;;0.20;0.10;;;22.70;89.10;;;;;;5093656;28;20024;-81
2022/07/02 07:11:56;;;;;;;0.90;0.00;;;22.80;88.20;;;;;;5093670;28;20024;-82
2022/07/02 07:14:22;;;;;;;0.30;0.30;;;22.90;88.60;;;;;;5092753;28;20028;-82
2022/07/02 07:16:48;;;;;;;3.33;0.17;;;22.90;86.80;;;;;;5092839;28;20024;-82
2022/07/02 07:19:14;;;;;;;0.10;0.10;;;23.00;87.90;;;;;;5094109;28;20099;-81
2022/07/02 07:21:42;;;;;;;0.32;0.17;;;23.20;86.90;;;;;;5092381;28;20028;-82
2022/07/02 07:24:09;;;;;;;1.73;0.22;;;23.30;86.80;;;;;;5092503;28;20024;-81
2022/07/02 07:26:36;;;;;;;0.10;0.10;;;23.10;82.50;;;;;;5094823;28;20099;-85
2022/07/02 07:29:03;;;;;;;0.10;0.10;;;23.20;86.70;;;;;;5094493;28;20479;-88
2022/07/02 07:31:29;;;;;;;1.55;0.20;;;23.30;84.70;;;;;;5094109;28;20077;-87
2022/07/02 07:33:55;;;;;;;0.20;0.20;;;23.40;83.90;;;;;;5095345;28;20035;-87
2022/07/02 07:36:23;;;;;;;0.10;0.10;;;23.40;83.00;;;;;;5095540;28;20023;-87
2022/07/02 07:38:50;;;;;;;0.10;0.03;;;23.40;80.50;;;;;;5094362;28;20024;-79
2022/07/02 07:41:17;;;;;;;0.10;0.10;;;23.30;81.80;;;;;;5092287;28;20135;-79
2022/07/02 07:43:42;;;;;;;1.23;0.32;;;23.40;85.00;;;;;;5093447;28;20071;-79
2022/07/02 07:46:08;;;;;;;0.40;0.20;;;23.70;83.80;;;;;;5093417;28;20036;-80
2022/07/02 07:48:34;;;;;;;3.38;0.43;;;23.90;82.20;;;;;;5092112;28;20035;-79
2022/07/02 07:51:00;;;;;;;1.67;0.20;;;23.80;79.40;;;;;;5092175;28;20105;-78
2022/07/02 07:53:26;;;;;;;0.15;0.10;;;23.80;79.80;;;;;;5093114;28;20024;-79
2022/07/02 07:55:53;;;;;;;0.10;0.10;;;24.00;78.10;;;;;;5093353;28;20028;-79
2022/07/02 07:58:19;;;;;;;0.50;0.17;;;24.10;80.20;;;;;;5091924;28;20405;-79
2022/07/02 08:00:46;;;;;;;0.20;0.20;;;24.20;79.60;;;;;;5093323;28;20032;-79
2022/07/02 08:03:14;;;;;;;0.52;0.17;;;24.30;78.00;;;;;;5093182;28;20030;-79
2022/07/02 08:05:40;;;;;;;0.28;0.10;;;24.30;73.90;;;;;;5052579;28;1163297;-78
2022/07/02 08:08:09;;;;;;;0.15;0.10;;;24.10;77.90;;;;;;5092662;28;20028;-79
2022/07/02 08:10:35;;;;;;;0.20;0.20;;;24.20;75.20;;;;;;5094025;28;20024;-78
2022/07/02 08:13:00;;;;;;;0.17;0.15;;;24.30;75.20;;;;;;5094004;28;20035;-78
2022/07/02 08:15:27;;;;;;;0.20;0.20;;;24.40;76.70;;;;;;5093829;28;20032;-78
2022/07/02 08:17:53;;;;;;;3.95;0.22;;;24.60;77.70;;;;;;5093729;28;20563;-78
2022/07/02 08:20:19;;;;;;;1.02;0.15;;;24.70;76.50;;;;;;5093994;28;20111;-78
2022/07/02 08:22:46;;;;;;;0.15;0.15;;;24.80;75.90;;;;;;5093831;28;20107;-78
2022/07/02 08:25:15;;;;;;;1.40;0.28;;;24.90;74.60;;;;;;5093513;28;20024;-78
2022/07/02 08:27:42;;;;;;;0.08;0.08;;;24.90;75.00;;;;;;5093689;28;20411;-78
2022/07/02 08:30:09;;;;;;;0.20;0.20;;;25.10;74.70;;;;;;5093404;28;20020;-79
2022/07/02 08:32:35;;;;;;;0.10;0.10;;;25.20;71.80;;;;;;5093507;28;20024;-78
2022/07/02 08:35:02;;;;;;;0.10;0.10;;;25.10;69.30;;;;;;5091071;28;20067;-77
2022/07/02 08:37:28;;;;;;;0.20;0.00;;;25.00;72.40;;;;;;5093377;28;20024;-78
2022/07/02 08:39:54;;;;;;;1.08;0.13;;;25.00;73.80;;;;;;5093398;28;20415;-78
2022/07/02 08:42:28;;;;;;;1.85;0.10;;;25.00;71.60;;;;;;5093259;28;20048;-78
2022/07/02 08:44:56;;;;;;;0.28;0.10;;;25.10;71.20;;;;;;5093268;28;20366;-79
2022/07/02 08:47:23;;;;;;;0.08;0.08;;;25.10;72.10;;;;;;5093229;28;20031;-79
2022/07/02 08:49:52;;;;;;;0.10;0.10;;;25.10;71.40;;;;;;5093658;28;20380;-79
2022/07/02 08:52:19;;;;;;;0.15;0.03;;;24.90;70.40;;;;;;5091971;28;20046;-78
2022/07/02 08:54:45;;;;;;;0.10;0.10;;;24.50;70.70;;;;;;5092981;28;20120;-76
2022/07/02 08:57:13;;;;;;;0.20;0.20;;;24.40;73.90;;;;;;5093025;28;20024;-77
2022/07/02 08:59:39;;;;;;;0.05;0.05;;;24.60;75.40;;;;;;5092773;28;20351;-77
2022/07/02 09:02:07;;;;;;;0.60;0.40;;;24.80;74.40;;;;;;5093542;28;20561;-76
2022/07/02 09:04:34;;;;;;;0.10;0.10;;;25.10;74.40;;;;;;5093236;28;20036;-78
2022/07/02 09:07:02;;;;;;;0.25;0.10;;;25.20;73.30;;;;;;5093416;28;20415;-78
2022/07/02 09:09:29;;;;;;;0.00;0.00;;;25.30;71.50;;;;;;5092903;28;20027;-78
2022/07/02 09:11:56;;;;;;;0.47;0.15;;;25.40;71.40;;;;;;5093908;28;20099;-78
2022/07/02 09:14:22;;;;;;;0.52;0.20;;;25.60;71.90;;;;;;5094820;28;20036;-78
2022/07/02 09:16:49;;;;;;;0.00;0.00;;;25.70;70.80;;;;;;5093658;28;20099;-77
2022/07/02 09:19:16;;;;;;;0.10;0.10;;;25.90;72.30;;;;;;5093425;28;20024;-80
2022/07/02 09:21:45;;;;;;;0.22;0.10;;;26.00;84.90;;;;;;5093057;28;20021;-78
2022/07/02 09:24:11;;;;;;;0.10;0.08;;;26.10;70.40;;;;;;5093076;28;20375;-81
2022/07/02 09:26:37;;;;;;;0.55;0.10;;;26.10;69.30;;;;;;5092369;28;20089;-80
2022/07/02 09:29:04;;;;;;;1.05;0.28;;;26.10;70.20;;;;;;5093549;28;20024;-80
2022/07/02 09:31:31;;;;;;;0.25;0.20;;;26.10;69.50;;;;;;5094359;28;20020;-79
2022/07/02 09:33:57;;;;;;;0.10;0.10;;;26.10;72.30;;;;;;5092575;28;20027;-80
2022/07/02 09:36:24;;;;;;;0.10;0.10;;;26.10;71.10;;;;;;5093816;28;20028;-80
2022/07/02 09:38:52;;;;;;;1.05;0.30;;;26.30;72.30;;;;;;5092752;28;20025;-82
2022/07/02 09:41:23;;;;;;;0.00;0.00;;;26.40;70.70;;;;;;5094174;28;20020;-83
2022/07/02 09:43:59;;;;;;;0.20;0.20;;;26.30;71.20;;;;;;5093635;28;20403;-79
2022/07/02 09:46:25;;;;;;;0.20;0.20;;;26.50;71.20;;;;;;5092602;28;20039;-85
2022/07/02 09:48:51;;;;;;;0.25;0.10;;;26.50;70.60;;;;;;5094077;28;20035;-86
2022/07/02 09:51:18;;;;;;;0.10;0.10;;;26.60;70.10;;;;;;5093470;28;20418;-82
2022/07/02 09:53:52;;;;;;;0.57;0.10;;;26.70;67.90;;;;;;5098420;28;20609;-82
2022/07/02 09:56:23;;;;;;;0.20;0.20;;;26.60;69.20;;;;;;5094596;28;20024;-89
2022/07/02 09:58:50;;;;;;;0.10;0.10;;;26.80;68.30;;;;;;5096511;28;20012;-79
2022/07/02 10:01:20;;;;;;;0.22;0.15;;;27.00;70.30;;;;;;5095448;28;20459;-89
2022/07/02 10:03:54;;;;;;;0.17;0.10;;;27.10;65.80;;;;;;5094847;28;20020;-83
2022/07/02 10:06:20;;;;;;;0.20;0.20;;;27.00;66.20;;;;;;5093798;28;20036;-85
2022/07/02 10:08:47;;;;;;;0.10;0.10;;;27.00;67.00;;;;;;5095936;28;20050;-78
2022/07/02 10:11:15;;;;;;;0.00;0.00;;;27.10;67.30;;;;;;5093920;28;20020;-78
2022/07/02 10:13:42;;;;;;;0.17;0.10;;;27.10;68.10;;;;;;5092105;28;20031;-78
2022/07/02 10:16:19;;;;;;;0.17;0.10;;;27.00;65.00;;;;;;5092355;28;20028;-79
2022/07/02 10:18:46;;;;;;;0.47;0.10;;;27.00;67.60;;;;;;5092041;28;20028;-78
2022/07/02 10:21:13;;;;;;;0.22;0.20;;;27.00;66.70;;;;;;5092216;28;20024;-80
2022/07/02 10:23:42;;;;;;;0.10;0.10;;;26.90;66.00;;;;;;5092045;28;20031;-79
2022/07/02 10:26:08;;;;;;;0.10;0.10;;;26.90;66.60;;;;;;5092378;28;20025;-79
2022/07/02 10:28:34;;;;;;;0.35;0.20;;;27.00;66.60;;;;;;5092040;28;20526;-80
2022/07/02 10:31:00;;;;;;;2.10;0.13;;;27.00;64.20;;;;;;5090837;28;20383;-79
2022/07/02 10:33:32;;;;;;;1.33;0.40;;;27.00;64.90;;;;;;5092056;28;20028;-79
2022/07/02 10:35:59;;;;;;;0.40;0.30;;;26.90;65.00;;;;;;5090860;28;20357;-80
2022/07/02 10:38:39;;;;;;;0.38;0.10;;;26.80;63.40;;;;;;5091447;28;20020;-80
2022/07/02 10:41:07;;;;;;;0.30;0.20;;;26.70;63.10;;;;;;5090271;28;20028;-80
2022/07/02 10:43:34;;;;;;;0.98;0.20;;;26.80;64.60;;;;;;5091744;28;20021;-79
2022/07/02 10:46:05;;;;;;;1.85;0.22;;;27.00;65.20;;;;;;5090556;28;20028;-81
2022/07/02 10:48:54;;;;;;;0.40;0.10;;;27.10;64.20;;;;;;5091757;28;20024;-80
2022/07/02 10:51:25;;;;;;;0.13;0.13;;;27.20;63.20;;;;;;5091493;28;20115;-80
2022/07/02 10:54:03;;;;;;;0.85;0.08;;;27.20;60.60;;;;;;5091557;28;20045;-80
2022/07/02 10:56:41;;;;;;;1.85;0.10;;;27.30;60.20;;;;;;5091398;28;20103;-79
2022/07/02 10:59:25;;;;;;;0.40;0.10;;;27.30;61.40;;;;;;5095383;28;20032;-80
2022/07/02 11:02:05;;;;;;;1.75;0.10;;;27.50;64.30;;;;;;5095310;28;20530;-80
2022/07/02 11:04:31;;;;;;;0.10;0.10;;;27.60;63.90;;;;;;5093838;28;20088;-80
2022/07/02 11:07:11;;;;;;;0.05;0.05;;;27.80;62.10;;;;;;5095492;28;20031;-79
2022/07/02 11:09:57;;;;;;;0.30;0.13;;;27.70;63.20;;;;;;5095034;28;20702;-80
2022/07/02 11:12:40;;;;;;;0.45;0.10;;;27.80;62.00;;;;;;5094991;28;20446;-79
2022/07/02 11:15:21;;;;;;;0.00;0.00;;;27.90;61.40;;;;;;5093481;28;20559;-79
2022/07/02 11:17:50;;;;;;;0.80;0.20;;;27.90;61.00;;;;;;5095092;28;20074;-79
2022/07/02 11:20:25;;;;;;;0.10;0.10;;;28.00;61.80;;;;;;5093851;28;20031;-80
2022/07/02 11:22:52;;;;;;;0.10;0.10;;;28.00;61.40;;;;;;5093703;28;20119;-80
2022/07/02 11:25:17;;;;;;;0.20;0.20;;;28.00;62.20;;;;;;5094649;28;20032;-80
2022/07/02 11:27:53;;;;;;;0.15;0.15;;;28.10;62.00;;;;;;5094995;28;20031;-79
2022/07/02 11:30:27;;;;;;;1.38;0.20;;;28.10;61.50;;;;;;5093213;28;20035;-79
2022/07/02 11:32:53;;;;;;;0.20;0.20;;;28.10;59.00;;;;;;5094573;28;20488;-80
2022/07/02 11:35:18;;;;;;;0.10;0.10;;;28.00;62.20;;;;;;5094611;28;20040;-80
2022/07/02 11:37:45;;;;;;;0.13;0.10;;;28.30;61.40;;;;;;5094354;28;20028;-80
2022/07/02 11:40:21;;;;;;;0.10;0.10;;;28.30;59.10;;;;;;5093032;28;20538;-79
2022/07/02 11:42:47;;;;;;;0.13;0.13;;;28.00;59.70;;;;;;5094526;28;20051;-79
2022/07/02 11:45:13;;;;;;;0.22;0.17;;;28.00;59.70;;;;;;5094295;28;20054;-79
2022/07/02 11:47:49;;;;;;;0.52;0.10;;;28.00;61.50;;;;;;5094187;28;20024;-79
2022/07/02 11:50:25;;;;;;;0.20;0.10;;;27.90;59.10;;;;;;5094211;28;20289;-79
2022/07/02 11:52:51;;;;;;;0.10;0.10;;;28.00;61.00;;;;;;5094906;28;20028;-80
2022/07/02 11:55:17;;;;;;;0.90;0.20;;;28.20;61.70;;;;;;5093614;28;20039;-79
2022/07/02 11:57:44;;;;;;;0.22;0.20;;;28.40;60.30;;;;;;5093815;28;20020;-78
2022/07/02 12:00:10;;;;;;;0.20;0.17;;;28.60;59.70;;;;;;5092895;28;20024;-80
2022/07/02 12:02:37;;;;;;;0.35;0.10;;;28.50;59.30;;;;;;5092721;28;20028;-82
2022/07/02 12:05:19;;;;;;;0.10;0.10;;;28.60;58.00;;;;;;5093671;28;20364;-85
2022/07/02 12:07:46;;;;;;;0.08;0.08;;;28.70;58.80;;;;;;5092611;28;20031;-84
2022/07/02 12:10:14;;;;;;;0.10;0.10;;;28.70;59.20;;;;;;5093066;28;20036;-86
2022/07/02 12:12:39;;;;;;;0.32;0.10;;;28.80;57.70;;;;;;5092046;28;20031;-80
2022/07/02 12:15:06;;;;;;;0.30;0.30;;;28.70;56.60;;;;;;5093586;28;20040;-78
2022/07/02 12:17:35;;;;;;;0.10;0.10;;;28.70;58.50;;;;;;5093410;28;20660;-81
2022/07/02 12:20:05;;;;;;;0.28;0.10;;;28.70;56.50;;;;;;5092646;28;20035;-79
2022/07/02 12:22:33;;;;;;;0.00;0.00;;;28.60;57.50;;;;;;5092640;28;20111;-81
2022/07/02 12:24:59;;;;;;;0.20;0.20;;;28.50;58.10;;;;;;5093656;28;20122;-83
2022/07/02 12:27:25;;;;;;;0.30;0.20;;;28.60;59.10;;;;;;5095132;28;20494;-82
2022/07/02 12:29:56;;;;;;;0.20;0.20;;;28.60;61.00;;;;;;5096093;28;20028;-82
2022/07/02 12:32:22;;;;;;;0.70;0.20;;;28.70;59.30;;;;;;5096937;28;20020;-83
2022/07/02 12:34:50;;;;;;;0.40;0.10;;;28.90;60.80;;;;;;5096479;28;20398;-80
2022/07/02 12:37:26;;;;;;;0.10;0.10;;;28.90;58.00;;;;;;5094020;28;20148;-84
2022/07/02 12:40:13;;;;;;;0.10;0.10;;;28.70;58.10;;;;;;5092733;28;20031;-86
2022/07/02 12:42:49;;;;;;;0.10;0.10;;;28.70;59.50;;;;;;5094474;28;20028;-84
2022/07/02 12:45:22;;;;;;;0.20;0.17;;;28.90;59.20;;;;;;5095697;28;20023;-89
2022/07/02 12:48:01;;;;;;;0.20;0.20;;;28.90;57.60;;;;;;5094035;28;20027;-79
2022/07/02 12:50:29;;;;;;;0.10;0.10;;;28.80;58.70;;;;;;5092747;28;20024;-83
2022/07/02 12:53:00;;;;;;;0.10;0.10;;;28.60;58.10;;;;;;5094471;28;20052;-87
2022/07/02 12:55:38;;;;;;;0.00;0.00;;;28.40;57.30;;;;;;5092906;28;20446;-82
2022/07/02 12:58:11;;;;;;;0.13;0.13;;;28.50;56.70;;;;;;5092542;28;20020;-86